createdAt,value
2018-03-25T00:01:15.140Z,95.20
2018-03-25T00:03:43.196Z,95.20
2018-03-25T00:06:12.035Z,94.50
2018-03-25T00:08:40.122Z,94.50
2018-03-25T00:11:08.192Z,94.50
2018-03-25T00:13:36.271Z,94.50
2018-03-25T00:16:04.352Z,94.40
2018-03-25T00:18:32.429Z,94.50
2018-03-25T00:21:00.500Z,94.70
2018-03-25T00:23:29.344Z,94.60
2018-03-25T00:25:57.411Z,94.50
2018-03-25T00:28:25.470Z,94.30
2018-03-25T00:30:54.303Z,94.40
2018-03-25T00:33:22.380Z,94.40
2018-03-25T00:35:50.474Z,94.20
2018-03-25T00:38:18.537Z,94.40
2018-03-25T00:40:46.603Z,94.30
2018-03-25T00:43:14.682Z,94.70
2018-03-25T00:45:42.740Z,94.90
2018-03-25T00:50:49.937Z,94.90
2018-03-25T00:53:18.005Z,94.80
2018-03-25T00:55:46.064Z,95.00
2018-03-25T00:58:14.911Z,95.10
2018-03-25T01:00:42.981Z,95.00
2018-03-25T01:03:11.125Z,95.20
2018-03-25T01:05:39.193Z,95.10
2018-03-25T01:08:07.256Z,95.30
2018-03-25T01:10:35.312Z,95.30
2018-03-25T01:13:03.393Z,95.40
2018-03-25T01:15:44.253Z,95.90
2018-03-25T01:18:12.325Z,95.90
2018-03-25T01:20:40.383Z,95.60
2018-03-25T01:23:08.453Z,95.50
2018-03-25T01:25:36.515Z,95.70
2018-03-25T01:28:04.586Z,95.90
2018-03-25T01:30:33.420Z,95.80
2018-03-25T01:33:01.498Z,95.80
2018-03-25T01:35:29.555Z,95.90
2018-03-25T01:37:58.389Z,95.80
2018-03-25T01:40:26.484Z,95.80
2018-03-25T01:42:54.547Z,95.80
2018-03-25T01:45:22.621Z,96.20
2018-03-25T01:47:50.691Z,96.20
2018-03-25T01:50:19.534Z,96.10
2018-03-25T01:52:47.598Z,96.00
2018-03-25T01:55:15.676Z,96.30
2018-03-25T01:57:43.738Z,96.10
2018-03-25T02:00:11.802Z,96.00
2018-03-25T02:02:39.874Z,96.10
2018-03-25T02:05:07.944Z,96.10
2018-03-25T02:07:35.999Z,96.20
2018-03-25T02:10:04.071Z,96.30
2018-03-25T02:12:32.908Z,96.50
2018-03-25T02:15:00.978Z,96.50
2018-03-25T02:17:29.080Z,96.30
2018-03-25T02:19:57.159Z,96.20
2018-03-25T02:22:25.236Z,96.00
2018-03-25T02:24:53.304Z,96.10
2018-03-25T02:27:21.358Z,96.10
2018-03-25T02:29:49.427Z,96.10
2018-03-25T02:32:17.496Z,96.20
2018-03-25T02:34:45.565Z,96.00
2018-03-25T02:37:13.627Z,96.00
2018-03-25T02:39:41.704Z,96.10
2018-03-25T02:42:09.768Z,96.10
2018-03-25T02:44:38.599Z,96.10
2018-03-25T02:47:06.676Z,96.00
2018-03-25T02:49:34.744Z,96.50
2018-03-25T02:52:03.581Z,96.40
2018-03-25T02:54:31.678Z,96.40
2018-03-25T02:56:59.751Z,96.50
2018-03-25T02:59:27.839Z,96.50
2018-03-25T03:01:55.909Z,96.70
2018-03-25T03:04:23.975Z,96.50
2018-03-25T03:06:52.822Z,96.60
2018-03-25T03:09:20.892Z,96.60
2018-03-25T03:11:48.963Z,96.40
2018-03-25T03:14:17.052Z,96.40
2018-03-25T03:16:45.131Z,96.80
2018-03-25T03:19:13.200Z,96.90
2018-03-25T03:21:41.277Z,97.20
2018-03-25T03:24:10.103Z,97.50
2018-03-25T03:26:38.180Z,97.80
2018-03-25T03:29:06.245Z,97.50
2018-03-25T03:31:35.089Z,97.00
2018-03-25T03:34:03.143Z,97.00
2018-03-25T03:36:31.214Z,96.90
2018-03-25T03:39:00.044Z,97.20
2018-03-25T03:41:28.116Z,97.20
2018-03-25T03:43:56.173Z,97.00
2018-03-25T03:46:25.017Z,97.10
2018-03-25T03:48:53.080Z,97.10
2018-03-25T03:51:21.166Z,97.10
2018-03-25T03:53:49.238Z,97.10
2018-03-25T03:56:18.066Z,97.20
2018-03-25T03:58:46.132Z,97.20
2018-03-25T04:01:14.216Z,97.20
2018-03-25T04:03:42.277Z,97.10
2018-03-25T04:06:11.139Z,97.10
2018-03-25T04:08:39.215Z,97.00
2018-03-25T04:11:07.287Z,96.90
2018-03-25T04:13:35.360Z,97.00
2018-03-25T04:16:03.446Z,97.20
2018-03-25T04:18:31.509Z,96.90
2018-03-25T04:21:00.914Z,96.80
2018-03-25T04:23:28.983Z,96.70
2018-03-25T04:25:57.042Z,96.80
2018-03-25T04:28:25.117Z,96.80
2018-03-25T04:30:53.181Z,96.70
2018-03-25T04:33:21.258Z,96.80
2018-03-25T04:35:49.318Z,96.80
2018-03-25T04:38:17.397Z,96.70
2018-03-25T04:40:45.461Z,96.70
2018-03-25T04:43:13.533Z,96.90
2018-03-25T04:45:41.606Z,96.90
2018-03-25T04:48:09.682Z,96.90
2018-03-25T04:50:37.747Z,96.80
2018-03-25T04:53:05.824Z,96.90
2018-03-25T04:55:34.650Z,97.20
2018-03-25T04:58:02.708Z,97.20
2018-03-25T05:00:31.543Z,97.40
2018-03-25T05:02:59.612Z,97.30
2018-03-25T05:05:27.666Z,97.30
2018-03-25T05:07:56.502Z,97.30
2018-03-25T05:10:24.577Z,97.30
2018-03-25T05:12:52.646Z,97.20
2018-03-25T05:15:21.465Z,97.10
2018-03-25T05:17:49.544Z,97.10
2018-03-25T05:20:18.367Z,97.20
2018-03-25T05:22:46.437Z,97.20
2018-03-25T05:25:14.522Z,97.40
2018-03-25T05:27:42.587Z,97.50
2018-03-25T05:30:11.410Z,97.50
2018-03-25T05:32:39.479Z,97.50
2018-03-25T05:35:07.552Z,97.70
2018-03-25T05:37:36.375Z,97.90
2018-03-25T05:40:04.449Z,97.90
2018-03-25T05:42:32.519Z,98.10
2018-03-25T05:45:01.364Z,98.00
2018-03-25T05:50:01.017Z,98.10
2018-03-25T05:52:29.076Z,98.00
2018-03-25T05:54:57.137Z,98.20
2018-03-25T05:57:25.962Z,98.10
2018-03-25T05:59:54.030Z,98.00
2018-03-25T06:02:22.862Z,96.50
2018-03-25T06:04:50.923Z,96.50
2018-03-25T06:07:19.743Z,96.30
2018-03-25T06:09:47.828Z,96.30
2018-03-25T06:12:15.887Z,95.40
2018-03-25T06:14:44.740Z,92.80
2018-03-25T06:17:12.802Z,92.80
2018-03-25T06:19:40.887Z,92.90
2018-03-25T06:22:08.953Z,91.60
2018-03-25T06:24:37.016Z,90.10
2018-03-25T06:27:05.839Z,84.10
2018-03-25T06:29:33.922Z,84.00
2018-03-25T06:32:01.988Z,84.20
2018-03-25T06:34:30.816Z,78.50
2018-03-25T06:36:58.875Z,78.40
2018-03-25T06:39:27.706Z,73.30
2018-03-25T06:41:55.767Z,73.30
2018-03-25T06:44:24.612Z,72.50
2018-03-25T06:46:52.718Z,71.50
2018-03-25T06:49:20.733Z,69.00
2018-03-25T06:51:49.590Z,66.50
2018-03-25T06:54:17.627Z,66.40
2018-03-25T06:56:45.697Z,65.30
2018-03-25T06:59:14.518Z,64.10
2018-03-25T07:01:42.586Z,64.00
2018-03-25T07:04:11.415Z,63.90
2018-03-25T07:06:39.479Z,63.80
2018-03-25T07:09:07.539Z,61.80
2018-03-25T07:11:35.599Z,61.50
2018-03-25T07:14:03.658Z,60.40
2018-03-25T07:23:59.747Z,54.00
2018-03-25T07:26:28.579Z,53.10
2018-03-25T07:28:56.647Z,53.10
2018-03-25T07:31:25.478Z,53.80
2018-03-25T07:33:53.538Z,53.70
2018-03-25T07:36:21.603Z,50.10
2018-03-25T07:38:50.432Z,51.20
2018-03-25T07:41:18.502Z,51.10
2018-03-25T07:43:47.337Z,50.40
2018-03-25T07:46:15.444Z,50.30
2018-03-25T07:48:43.516Z,50.60
2018-03-25T07:51:11.585Z,49.20
2018-03-25T07:53:39.650Z,46.90
2018-03-25T07:56:07.720Z,45.80
2018-03-25T07:58:36.544Z,43.90
2018-03-25T08:01:04.616Z,43.90
2018-03-25T08:03:32.687Z,43.40
2018-03-25T08:06:01.524Z,43.20
2018-03-25T08:08:29.592Z,43.20
2018-03-25T08:10:58.399Z,41.50
2018-03-25T08:13:26.472Z,41.50
2018-03-25T08:15:54.522Z,40.00
2018-03-25T08:18:22.588Z,41.40
2018-03-25T08:20:50.656Z,41.70
2018-03-25T08:23:18.735Z,43.50
2018-03-25T08:25:46.799Z,43.80
2018-03-25T08:28:14.871Z,42.50
2018-03-25T08:30:42.945Z,42.30
2018-03-25T08:33:11.779Z,42.60
2018-03-25T08:35:39.852Z,42.60
2018-03-25T08:38:07.914Z,42.00
2018-03-25T08:40:36.749Z,42.60
2018-03-25T08:43:04.820Z,42.50
2018-03-25T08:45:32.876Z,42.00
2018-03-25T08:48:01.711Z,39.70
2018-03-25T08:50:29.800Z,39.60
2018-03-25T08:52:57.875Z,37.70
2018-03-25T08:55:25.948Z,39.50
2018-03-25T08:57:54.019Z,40.00
2018-03-25T09:00:22.074Z,42.50
2018-03-25T09:02:50.145Z,42.10
2018-03-25T09:05:18.211Z,41.30
2018-03-25T09:07:46.297Z,41.00
2018-03-25T09:10:14.360Z,40.50
2018-03-25T09:12:42.438Z,41.00
2018-03-25T09:15:10.500Z,41.60
2018-03-25T09:17:39.329Z,37.50
2018-03-25T09:20:07.396Z,37.30
2018-03-25T09:22:36.230Z,40.00
2018-03-25T09:25:04.286Z,40.00
2018-03-25T09:27:32.354Z,41.00
2018-03-25T09:30:00.418Z,42.50
2018-03-25T09:32:28.508Z,43.90
2018-03-25T09:34:56.574Z,43.60
2018-03-25T09:37:24.651Z,44.00
2018-03-25T09:39:52.711Z,41.20
2018-03-25T09:42:20.777Z,39.10
2018-03-25T09:44:48.855Z,39.30
2018-03-25T09:47:17.681Z,43.80
2018-03-25T09:49:45.769Z,43.80
2018-03-25T09:52:13.834Z,45.00
2018-03-25T09:54:41.914Z,44.10
2018-03-25T09:57:10.743Z,46.40
2018-03-25T09:59:38.812Z,46.40
2018-03-25T10:02:12.505Z,44.60
2018-03-25T10:04:41.379Z,41.20
2018-03-25T10:07:09.394Z,41.10
2018-03-25T10:09:38.230Z,45.60
2018-03-25T10:12:06.291Z,45.60
2018-03-25T10:14:34.376Z,45.50
2018-03-25T10:17:02.448Z,44.90
2018-03-25T10:19:31.282Z,42.80
2018-03-25T10:21:59.353Z,42.70
2018-03-25T10:24:27.434Z,39.40
2018-03-25T10:26:55.496Z,40.90
2018-03-25T10:29:23.573Z,41.00
2018-03-25T10:31:51.643Z,44.10
2018-03-25T10:34:21.231Z,41.50
2018-03-25T10:36:49.296Z,41.40
2018-03-25T10:39:17.367Z,39.00
2018-03-25T10:41:45.449Z,36.70
2018-03-25T10:44:13.526Z,38.80
2018-03-25T10:46:42.352Z,38.00
2018-03-25T10:49:10.420Z,38.00
2018-03-25T10:51:38.479Z,37.10
2018-03-25T10:54:06.533Z,38.00
2018-03-25T10:56:35.377Z,39.50
2018-03-25T10:59:04.202Z,39.90
2018-03-25T11:01:32.275Z,39.80
2018-03-25T11:04:00.342Z,37.60
2018-03-25T11:06:29.188Z,36.30
2018-03-25T11:08:57.245Z,36.30
2018-03-25T11:11:25.304Z,36.70
2018-03-25T11:13:53.428Z,39.50
2018-03-25T11:16:21.504Z,39.30
2018-03-25T11:18:49.574Z,37.40
2018-03-25T11:21:17.655Z,35.30
2018-03-25T11:23:46.483Z,34.80
2018-03-25T11:26:14.552Z,34.70
2018-03-25T11:28:42.615Z,34.20
2018-03-25T11:31:11.456Z,35.40
2018-03-25T11:33:39.514Z,35.30
2018-03-25T11:36:08.347Z,33.60
2018-03-25T11:38:36.409Z,33.50
2018-03-25T11:41:04.475Z,32.80
2018-03-25T11:43:33.304Z,34.50
2018-03-25T11:46:01.387Z,34.40
2018-03-25T11:48:29.448Z,32.50
2018-03-25T11:50:58.287Z,33.70
2018-03-25T11:53:26.349Z,33.60
2018-03-25T11:55:54.415Z,36.60
2018-03-25T11:58:22.550Z,34.40
2018-03-25T12:00:50.663Z,33.60
2018-03-25T12:03:18.735Z,32.40
2018-03-25T12:05:46.807Z,34.20
2018-03-25T12:08:14.886Z,33.40
2018-03-25T12:10:42.955Z,33.60
2018-03-25T12:13:11.032Z,32.50
2018-03-25T12:15:39.111Z,31.80
2018-03-25T12:18:07.200Z,31.00
2018-03-25T12:20:35.264Z,31.40
2018-03-25T12:23:04.106Z,30.20
2018-03-25T12:25:32.174Z,30.20
2018-03-25T12:28:00.246Z,31.50
2018-03-25T12:30:28.298Z,31.80
2018-03-25T12:32:56.375Z,32.80
2018-03-25T12:35:24.432Z,30.20
2018-03-25T12:37:52.504Z,30.00
2018-03-25T12:40:20.577Z,30.10
2018-03-25T12:42:48.648Z,31.70
2018-03-25T12:45:16.715Z,31.80
2018-03-25T12:47:45.548Z,30.90
2018-03-25T12:50:13.608Z,30.80
2018-03-25T12:52:42.439Z,29.80
2018-03-25T12:55:10.503Z,29.80
2018-03-25T12:57:38.576Z,30.10
2018-03-25T13:00:07.409Z,32.00
2018-03-25T13:02:35.522Z,31.90
2018-03-25T13:05:03.560Z,32.60
2018-03-25T13:07:31.624Z,34.50
2018-03-25T13:09:59.695Z,32.90
2018-03-25T13:12:27.774Z,31.50
2018-03-25T13:14:55.827Z,31.30
2018-03-25T13:17:23.904Z,33.80
2018-03-25T13:19:51.973Z,34.70
2018-03-25T13:22:20.049Z,33.50
2018-03-25T13:24:48.107Z,33.90
2018-03-25T13:27:17.687Z,34.60
2018-03-25T13:29:45.750Z,34.60
2018-03-25T13:32:13.837Z,32.70
2018-03-25T13:34:41.895Z,33.50
2018-03-25T13:37:09.957Z,33.80
2018-03-25T13:39:38.800Z,36.20
2018-03-25T13:42:06.863Z,36.20
2018-03-25T13:44:35.700Z,34.00
2018-03-25T13:47:03.755Z,34.00
2018-03-25T13:49:31.836Z,34.90
2018-03-25T13:51:59.897Z,34.10
2018-03-25T13:54:27.975Z,33.60
2018-03-25T13:56:56.053Z,32.90
2018-03-25T13:59:25.631Z,35.80
2018-03-25T14:01:53.695Z,35.80
2018-03-25T14:04:21.774Z,36.30
2018-03-25T14:06:50.645Z,34.40
2018-03-25T14:09:18.691Z,34.30
2018-03-25T14:11:46.762Z,35.00
2018-03-25T14:14:14.837Z,37.30
2018-03-25T14:16:42.901Z,38.50
2018-03-25T14:19:11.741Z,39.70
2018-03-25T14:21:39.803Z,39.60
2018-03-25T14:24:07.875Z,40.50
2018-03-25T14:26:36.712Z,41.50
2018-03-25T14:29:04.783Z,41.50
2018-03-25T14:31:32.847Z,40.60
2018-03-25T14:34:01.680Z,41.50
2018-03-25T14:36:29.767Z,41.50
2018-03-25T14:38:57.847Z,40.30
2018-03-25T14:41:25.914Z,40.30
2018-03-25T14:43:54.735Z,42.10
2018-03-25T14:46:22.816Z,42.00
2018-03-25T14:48:50.899Z,41.90
2018-03-25T14:51:18.975Z,41.90
2018-03-25T14:53:47.049Z,42.30
2018-03-25T14:56:15.126Z,41.60
2018-03-25T14:58:43.968Z,41.60
2018-03-25T15:01:12.032Z,41.50
2018-03-25T15:03:40.096Z,41.50
2018-03-25T15:06:08.928Z,42.30
2018-03-25T15:08:36.995Z,42.30
2018-03-25T15:11:05.071Z,41.80
2018-03-25T15:13:33.143Z,41.80
2018-03-25T15:16:01.971Z,42.70
2018-03-25T15:18:30.050Z,42.60
2018-03-25T15:20:58.133Z,43.10
2018-03-25T15:23:26.188Z,43.50
2018-03-25T15:25:55.064Z,44.50
2018-03-25T15:28:23.096Z,44.50
2018-03-25T15:30:51.180Z,43.80
2018-03-25T15:33:19.255Z,44.40
2018-03-25T15:35:48.317Z,45.10
2018-03-25T15:38:16.406Z,44.40
2018-03-25T15:40:44.521Z,44.10
2018-03-25T15:43:13.412Z,44.30
2018-03-25T15:45:41.682Z,44.30
2018-03-25T15:48:09.899Z,44.60
2018-03-25T15:50:37.985Z,44.70
2018-03-25T15:53:06.901Z,44.60
2018-03-25T15:55:35.898Z,44.60
2018-03-25T15:58:04.798Z,45.60
2018-03-25T16:00:33.749Z,45.80
2018-03-25T16:03:02.026Z,45.70
2018-03-25T16:05:30.148Z,45.40
2018-03-25T16:07:58.334Z,45.90
2018-03-25T16:10:26.961Z,45.10
2018-03-25T16:12:55.601Z,45.40
2018-03-25T16:15:23.756Z,45.40
2018-03-25T16:17:51.953Z,45.80
2018-03-25T16:20:21.065Z,46.30
2018-03-25T16:22:50.993Z,47.30
2018-03-25T16:25:19.198Z,47.30
2018-03-25T16:27:47.337Z,48.00
2018-03-25T16:30:15.450Z,47.90
2018-03-25T16:32:43.622Z,47.80
2018-03-25T16:35:13.416Z,48.30
2018-03-25T16:37:41.673Z,48.20
2018-03-25T16:40:09.809Z,49.40
2018-03-25T16:42:39.117Z,50.20
2018-03-25T16:45:08.051Z,50.20
2018-03-25T16:47:36.247Z,50.10
2018-03-25T16:50:04.415Z,50.50
2018-03-25T16:52:33.493Z,51.70
2018-03-25T16:55:01.754Z,51.50
2018-03-25T16:57:29.847Z,51.90
2018-03-25T16:59:58.046Z,52.40
2018-03-25T17:02:28.773Z,52.90
2018-03-25T17:04:56.893Z,54.40
2018-03-25T17:07:25.069Z,53.80
2018-03-25T17:09:53.169Z,54.50
2018-03-25T17:12:22.072Z,56.50
2018-03-25T17:14:50.255Z,56.10
2018-03-25T17:17:18.424Z,56.40
2018-03-25T17:19:46.548Z,57.00
2018-03-25T17:22:15.513Z,58.10
2018-03-25T17:24:43.625Z,58.00
2018-03-25T17:27:11.797Z,58.60
2018-03-25T17:29:39.947Z,58.90
2018-03-25T17:32:08.063Z,59.40
2018-03-25T17:34:36.200Z,59.60
2018-03-25T17:37:04.393Z,59.90
2018-03-25T17:39:32.480Z,60.20
2018-03-25T17:42:00.621Z,60.40
2018-03-25T17:44:28.792Z,60.20
2018-03-25T17:46:56.902Z,60.30
2018-03-25T17:49:26.258Z,61.40
2018-03-25T17:51:54.413Z,61.40
2018-03-25T17:54:22.956Z,61.70
2018-03-25T17:56:51.048Z,62.30
2018-03-25T17:59:19.176Z,63.20
2018-03-25T18:01:47.337Z,63.60
2018-03-25T18:04:15.583Z,63.80
2018-03-25T18:06:43.882Z,64.70
2018-03-25T18:09:12.039Z,65.30
2018-03-25T18:11:40.337Z,65.70
2018-03-25T18:14:08.439Z,66.80
2018-03-25T18:16:36.617Z,67.90
2018-03-25T18:19:04.792Z,68.80
2018-03-25T18:21:32.913Z,69.20
2018-03-25T18:24:01.064Z,69.30
2018-03-25T18:26:29.212Z,69.80
2018-03-25T18:28:58.108Z,72.80
2018-03-25T18:31:26.248Z,71.80
2018-03-25T18:33:54.881Z,72.20
2018-03-25T18:36:23.068Z,73.40
2018-03-25T18:38:51.216Z,74.90
2018-03-25T18:41:19.294Z,76.20
2018-03-25T18:43:47.433Z,77.20
2018-03-25T18:46:15.543Z,78.90
2018-03-25T18:48:44.441Z,80.00
2018-03-25T18:51:13.344Z,77.70
2018-03-25T18:53:42.279Z,78.00
2018-03-25T18:56:10.480Z,77.80
2018-03-25T18:58:38.588Z,78.60
2018-03-25T19:01:06.798Z,79.20
2018-03-25T19:03:34.966Z,79.50
2018-03-25T19:06:03.202Z,80.20
2018-03-25T19:08:31.266Z,80.10
2018-03-25T19:11:00.203Z,81.20
2018-03-25T19:13:29.106Z,81.70
2018-03-25T19:15:57.224Z,81.70
2018-03-25T19:18:25.359Z,81.80
2018-03-25T19:20:54.313Z,82.80
2018-03-25T19:23:22.484Z,82.70
2018-03-25T19:25:50.672Z,82.50
2018-03-25T19:28:18.903Z,81.80
2018-03-25T19:30:47.097Z,82.20
2018-03-25T19:33:16.004Z,82.50
2018-03-25T19:35:44.915Z,82.10
2018-03-25T19:38:13.817Z,82.00
2018-03-25T19:40:42.743Z,81.30
2018-03-25T19:43:10.893Z,81.20
2018-03-25T19:45:39.857Z,77.90
2018-03-25T19:48:08.061Z,78.40
2018-03-25T19:50:36.186Z,78.20
2018-03-25T19:53:05.125Z,78.30
2018-03-25T19:55:33.305Z,78.30
2018-03-25T19:58:01.408Z,77.80
2018-03-25T20:00:29.502Z,77.80
2018-03-25T20:02:57.683Z,78.40
2018-03-25T20:05:25.786Z,78.40
2018-03-25T20:07:53.929Z,78.10
2018-03-25T20:10:22.082Z,78.20
2018-03-25T20:12:50.985Z,78.40
2018-03-25T20:15:19.928Z,78.50
2018-03-25T20:17:48.088Z,78.50
2018-03-25T20:20:16.240Z,78.20
2018-03-25T20:22:45.938Z,78.00
2018-03-25T20:25:14.189Z,77.90
2018-03-25T20:27:42.348Z,78.60
2018-03-25T20:30:11.474Z,78.80
2018-03-25T20:32:39.621Z,79.40
2018-03-25T20:35:07.771Z,79.30
2018-03-25T20:37:35.911Z,80.00
2018-03-25T20:40:04.097Z,81.50
2018-03-25T20:42:32.224Z,81.10
2018-03-25T20:45:00.330Z,80.60
2018-03-25T20:47:28.513Z,80.60
2018-03-25T20:49:56.660Z,80.60
2018-03-25T20:52:24.847Z,80.30
2018-03-25T20:54:52.988Z,80.20
2018-03-25T20:57:21.166Z,79.80
2018-03-25T20:59:49.266Z,79.90
2018-03-25T21:02:17.386Z,80.10
2018-03-25T21:04:46.312Z,80.50
2018-03-25T21:07:14.473Z,80.40
2018-03-25T21:09:43.422Z,80.00
2018-03-25T21:12:11.514Z,80.00
2018-03-25T21:14:39.622Z,80.40
2018-03-25T21:17:07.774Z,80.40
2018-03-25T21:19:35.936Z,80.80
2018-03-25T21:22:04.073Z,80.80
2018-03-25T21:24:32.281Z,81.00
2018-03-25T21:27:00.397Z,80.90
2018-03-25T21:29:28.500Z,81.20
2018-03-25T21:31:56.655Z,81.60
2018-03-25T21:34:24.764Z,81.50
2018-03-25T21:36:52.887Z,81.80
2018-03-25T21:39:21.003Z,81.60
2018-03-25T21:41:49.896Z,82.30
2018-03-25T21:44:18.760Z,82.70
2018-03-25T21:46:46.913Z,82.40
2018-03-25T21:49:15.048Z,83.40
2018-03-25T21:51:43.234Z,83.40
2018-03-25T21:54:12.058Z,84.60
2018-03-25T21:56:40.163Z,84.50
2018-03-25T21:59:09.052Z,85.30
2018-03-25T22:01:37.144Z,85.30
2018-03-25T22:04:06.029Z,86.40
2018-03-25T22:06:34.909Z,86.70
2018-03-25T22:09:03.016Z,86.60
2018-03-25T22:11:31.158Z,87.40
2018-03-25T22:13:59.375Z,87.70
2018-03-25T22:16:27.459Z,88.50
2018-03-25T22:18:59.497Z,89.40
2018-03-25T22:21:27.703Z,90.00
2018-03-25T22:23:55.868Z,90.20
2018-03-25T22:26:24.024Z,90.20
2018-03-25T22:28:52.135Z,90.50
2018-03-25T22:31:20.448Z,90.60
2018-03-25T22:33:48.551Z,90.50
2018-03-25T22:36:16.684Z,90.60
2018-03-25T22:38:45.596Z,90.80
2018-03-25T22:41:13.743Z,90.80
2018-03-25T22:43:41.952Z,90.90
2018-03-25T22:46:10.296Z,90.90
2018-03-25T22:48:38.460Z,91.00
2018-03-25T22:51:06.670Z,91.10
2018-03-25T22:53:34.790Z,91.20
2018-03-25T22:56:03.691Z,91.60
2018-03-25T22:58:32.615Z,91.50
2018-03-25T23:01:00.739Z,91.40
2018-03-25T23:03:28.941Z,91.30
2018-03-25T23:05:57.097Z,91.80
2018-03-25T23:08:25.314Z,91.40
2018-03-25T23:10:53.446Z,91.40
2018-03-25T23:13:21.561Z,91.60
2018-03-25T23:15:49.682Z,91.70
2018-03-25T23:18:17.851Z,91.90
2018-03-25T23:20:45.954Z,91.60
2018-03-25T23:23:14.137Z,91.70
2018-03-25T23:25:42.256Z,91.70
2018-03-25T23:28:10.415Z,91.70
2018-03-25T23:30:38.583Z,91.20
2018-03-25T23:33:06.923Z,90.90
2018-03-25T23:35:35.828Z,90.90
2018-03-25T23:38:03.946Z,90.80
2018-03-25T23:40:32.168Z,90.70
2018-03-25T23:43:00.292Z,90.80
2018-03-25T23:45:28.525Z,90.60
2018-03-25T23:47:56.663Z,90.80
2018-03-25T23:50:24.831Z,90.80
2018-03-25T23:52:53.701Z,90.60
2018-03-25T23:55:21.816Z,90.60
2018-03-25T23:57:50.719Z,90.90
